Time;durP1;ratioP1;P1;durP2;ratioP2;P2;SDS_P1;SDS_P2;PMS_P1;PMS_P2;Temp;Humidity;BMP_temperature;BMP_pressure;BME280_temperature;BME280_humidity;BME280_pressure;Samples;Min_cycle;Max_cycle;Signal;HPM_P1;HPM_P2
2023/08/23 00:01:01;;;;;;;1.02;1.02;;;;;22.20;96418.00;;;;5134286;27;20743;-58
2023/08/23 00:03:30;;;;;;;0.70;0.70;;;;;22.20;96414.00;;;;5134312;27;20200;-59
2023/08/23 00:05:57;;;;;;;1.08;1.08;;;;;22.10;96412.00;;;;5134028;27;20216;-58
2023/08/23 00:08:25;;;;;;;1.13;1.13;;;;;22.20;96405.00;;;;5134345;27;20582;-58
2023/08/23 00:10:54;;;;;;;0.70;0.70;;;;;22.10;96396.00;;;;5134248;27;20200;-58
2023/08/23 00:13:22;;;;;;;0.95;0.95;;;;;22.10;96398.00;;;;5134252;28;20533;-58
2023/08/23 00:15:50;;;;;;;1.25;1.25;;;;;21.90;96389.00;;;;5134472;28;20668;-58
2023/08/23 00:18:17;;;;;;;0.93;0.93;;;;;21.90;96390.00;;;;5133908;28;20737;-59
2023/08/23 00:20:46;;;;;;;1.08;0.98;;;;;21.90;96388.00;;;;5132802;28;20200;-58
2023/08/23 00:23:13;;;;;;;0.65;0.65;;;;;21.70;96384.00;;;;5134052;28;20193;-58
2023/08/23 00:25:41;;;;;;;0.93;0.93;;;;;21.50;96384.00;;;;5138012;27;20189;-58
2023/08/23 00:28:08;;;;;;;0.90;0.77;;;;;21.60;96373.00;;;;5138345;27;20633;-58
2023/08/23 00:30:35;;;;;;;2.08;1.23;;;;;21.60;96382.00;;;;5137948;27;20189;-59
2023/08/23 00:33:03;;;;;;;0.93;0.93;;;;;21.50;96379.00;;;;5138535;27;20189;-58
2023/08/23 00:35:30;;;;;;;0.95;0.95;;;;;21.20;96375.00;;;;5138159;27;20185;-58
2023/08/23 00:37:59;;;;;;;1.38;1.27;;;;;21.30;96381.00;;;;5137758;27;20278;-58
2023/08/23 00:40:26;;;;;;;0.82;0.82;;;;;21.10;96380.00;;;;5137977;27;20201;-58
2023/08/23 00:42:54;;;;;;;0.95;0.95;;;;;21.30;96366.00;;;;5137963;27;20276;-58
2023/08/23 00:45:21;;;;;;;0.80;0.80;;;;;21.30;96376.00;;;;5138821;27;20216;-58
2023/08/23 00:47:49;;;;;;;1.02;1.00;;;;;21.40;96374.00;;;;5137808;27;20524;-59
2023/08/23 00:50:17;;;;;;;0.93;0.93;;;;;21.50;96385.00;;;;5137757;27;20193;-59
2023/08/23 00:52:44;;;;;;;1.65;1.50;;;;;21.50;96379.00;;;;5137741;27;20200;-59
2023/08/23 00:55:13;;;;;;;14.98;1.25;;;;;21.60;96379.00;;;;5137835;27;20591;-58
2023/08/23 00:57:40;;;;;;;1.00;0.98;;;;;21.50;96385.00;;;;5137480;27;20579;-58
2023/08/23 01:00:10;;;;;;;1.17;1.17;;;;;21.50;96384.00;;;;5137536;27;20189;-58
2023/08/23 01:02:37;;;;;;;2.97;1.63;;;;;21.40;96389.00;;;;5137625;27;20197;-58
2023/08/23 01:05:05;;;;;;;0.73;0.73;;;;;21.50;96387.00;;;;5137517;27;20224;-58
2023/08/23 01:07:41;;;;;;;1.02;1.02;;;;;21.50;96389.00;;;;5137454;27;20762;-58
2023/08/23 01:10:18;;;;;;;1.45;1.02;;;;;21.40;96390.00;;;;5137708;27;20178;-58
2023/08/23 01:12:56;;;;;;;0.68;0.68;;;;;21.20;96392.00;;;;5137619;27;20189;-58
2023/08/23 01:15:25;;;;;;;0.55;0.55;;;;;21.10;96390.00;;;;5138031;27;20182;-58
2023/08/23 01:17:53;;;;;;;0.95;0.95;;;;;21.00;96393.00;;;;5137290;27;20225;-58
2023/08/23 01:20:21;;;;;;;1.48;1.40;;;;;20.90;96368.00;;;;5137357;27;20246;-58
2023/08/23 01:22:54;;;;;;;0.90;0.90;;;;;20.80;96379.00;;;;5137310;27;20671;-58
2023/08/23 01:25:23;;;;;;;0.85;0.85;;;;;20.80;96383.00;;;;5137515;27;20235;-58
2023/08/23 01:27:50;;;;;;;0.90;0.90;;;;;20.80;96389.00;;;;5137044;27;20202;-58
2023/08/23 01:30:18;;;;;;;0.68;0.68;;;;;20.80;96390.00;;;;5137696;27;20250;-58
2023/08/23 01:32:53;;;;;;;3.00;1.35;;;;;20.80;96382.00;;;;5137073;27;20200;-58
2023/08/23 01:35:24;;;;;;;1.15;1.15;;;;;20.80;96387.00;;;;5135707;27;20195;-57
2023/08/23 01:37:53;;;;;;;2.08;1.40;;;;;20.70;96394.00;;;;5136886;27;20550;-58
2023/08/23 01:40:23;;;;;;;0.82;0.82;;;;;20.80;96386.00;;;;5136743;27;20215;-58
2023/08/23 01:42:51;;;;;;;1.55;1.08;;;;;20.80;96394.00;;;;5137148;27;20169;-58
2023/08/23 01:45:19;;;;;;;0.93;0.93;;;;;20.80;96389.00;;;;5136744;27;20200;-58
2023/08/23 01:47:46;;;;;;;1.35;1.30;;;;;20.70;96386.00;;;;5136831;27;20296;-57
2023/08/23 01:50:14;;;;;;;2.10;1.05;;;;;20.60;96376.00;;;;5136851;27;20197;-58
2023/08/23 01:52:41;;;;;;;1.30;1.20;;;;;20.60;96385.00;;;;5136778;27;20199;-58
2023/08/23 01:55:09;;;;;;;0.70;0.70;;;;;20.60;96387.00;;;;5136602;27;20262;-58
2023/08/23 01:57:39;;;;;;;0.82;0.82;;;;;20.40;96387.00;;;;5136191;27;20221;-57
2023/08/23 02:00:08;;;;;;;1.08;1.08;;;;;20.30;96384.00;;;;5136375;27;20173;-58
2023/08/23 02:02:36;;;;;;;0.77;0.77;;;;;20.30;96389.00;;;;5136169;27;20194;-58
2023/08/23 02:05:03;;;;;;;1.63;1.48;;;;;20.50;96389.00;;;;5136113;27;20212;-58
2023/08/23 02:07:30;;;;;;;1.02;0.82;;;;;20.50;96389.00;;;;5136166;27;20208;-58
2023/08/23 02:09:58;;;;;;;0.50;0.50;;;;;20.50;96388.00;;;;5136792;27;20200;-58
2023/08/23 02:12:25;;;;;;;9.32;1.60;;;;;20.60;96387.00;;;;5136012;27;20194;-58
2023/08/23 02:14:54;;;;;;;0.88;0.88;;;;;20.50;96382.00;;;;5136069;27;20189;-57
2023/08/23 02:17:21;;;;;;;1.15;1.15;;;;;20.50;96383.00;;;;5136273;27;20651;-58
2023/08/23 02:19:48;;;;;;;0.63;0.63;;;;;20.40;96393.00;;;;5135910;27;20295;-57
2023/08/23 02:22:16;;;;;;;0.73;0.73;;;;;20.20;96385.00;;;;5136270;27;20190;-58
2023/08/23 02:24:43;;;;;;;1.95;1.15;;;;;20.30;96384.00;;;;5135997;27;20664;-58
2023/08/23 02:27:10;;;;;;;1.08;1.02;;;;;20.30;96377.00;;;;5134482;27;20206;-57
2023/08/23 02:29:38;;;;;;;1.58;1.15;;;;;20.40;96370.00;;;;5136340;27;20538;-58
2023/08/23 02:32:07;;;;;;;0.63;0.63;;;;;20.50;96366.00;;;;5135659;27;20197;-58
2023/08/23 02:34:34;;;;;;;1.13;1.13;;;;;20.30;96369.00;;;;5135701;27;20204;-58
2023/08/23 02:37:01;;;;;;;0.98;0.98;;;;;20.20;96366.00;;;;5135703;27;20229;-57
2023/08/23 02:39:29;;;;;;;2.15;1.45;;;;;20.30;96367.00;;;;5135782;27;20185;-57
2023/08/23 02:41:56;;;;;;;0.65;0.65;;;;;20.20;96362.00;;;;5135722;27;20189;-57
2023/08/23 02:44:23;;;;;;;1.30;1.20;;;;;20.20;96362.00;;;;5135498;27;20200;-57
2023/08/23 02:46:51;;;;;;;0.88;0.88;;;;;20.20;96360.00;;;;5135542;27;20610;-57
2023/08/23 02:49:19;;;;;;;0.82;0.82;;;;;20.10;96367.00;;;;5133477;27;20208;-57
2023/08/23 02:51:47;;;;;;;1.85;1.75;;;;;20.10;96369.00;;;;5135354;27;20193;-58
2023/08/23 02:54:14;;;;;;;1.23;1.23;;;;;19.90;96368.00;;;;5135352;27;20197;-57
2023/08/23 02:56:41;;;;;;;1.48;1.35;;;;;19.90;96364.00;;;;5135162;27;20607;-57
2023/08/23 02:59:09;;;;;;;0.75;0.75;;;;;20.00;96369.00;;;;5135418;27;20212;-58
2023/08/23 03:01:36;;;;;;;1.05;1.05;;;;;20.00;96375.00;;;;5135264;27;20200;-57
2023/08/23 03:04:04;;;;;;;0.95;0.95;;;;;20.10;96364.00;;;;5135073;27;20660;-57
2023/08/23 03:06:32;;;;;;;1.35;1.35;;;;;20.00;96368.00;;;;5133884;27;20267;-58
2023/08/23 03:09:00;;;;;;;1.15;1.15;;;;;20.00;96372.00;;;;5135521;27;20185;-58
2023/08/23 03:11:27;;;;;;;0.65;0.65;;;;;19.90;96367.00;;;;5134841;27;20201;-58
2023/08/23 03:13:54;;;;;;;3.58;0.93;;;;;20.00;96371.00;;;;5134852;27;20196;-58
2023/08/23 03:16:22;;;;;;;1.15;1.15;;;;;20.00;96366.00;;;;5135276;27;20209;-58
2023/08/23 03:18:49;;;;;;;1.30;1.17;;;;;20.10;96360.00;;;;5134926;27;20216;-59
2023/08/23 03:21:16;;;;;;;1.05;1.05;;;;;20.10;96365.00;;;;5134751;27;20196;-57
2023/08/23 03:23:45;;;;;;;1.77;1.67;;;;;20.10;96370.00;;;;5134649;27;20208;-57
2023/08/23 03:26:12;;;;;;;1.35;1.25;;;;;20.00;96366.00;;;;5134893;27;20548;-57
2023/08/23 03:28:40;;;;;;;1.35;0.90;;;;;19.90;96368.00;;;;5134681;27;20266;-57
2023/08/23 03:31:07;;;;;;;0.80;0.80;;;;;19.90;96367.00;;;;5134603;27;20194;-57
2023/08/23 03:33:34;;;;;;;0.93;0.93;;;;;19.90;96357.00;;;;5134776;27;20189;-57
2023/08/23 03:36:02;;;;;;;1.00;1.00;;;;;20.00;96356.00;;;;5134871;27;20692;-57
2023/08/23 03:38:29;;;;;;;0.80;0.80;;;;;19.90;96349.00;;;;5134586;27;20209;-57
2023/08/23 03:40:58;;;;;;;0.83;0.83;;;;;19.80;96351.00;;;;5134652;27;20193;-57
2023/08/23 03:43:25;;;;;;;1.25;1.25;;;;;19.60;96346.00;;;;5134744;27;20208;-57
2023/08/23 03:45:53;;;;;;;1.25;1.25;;;;;19.60;96344.00;;;;5134226;27;20194;-57
2023/08/23 03:48:20;;;;;;;0.97;0.97;;;;;19.60;96338.00;;;;5134299;27;20185;-57
2023/08/23 03:50:47;;;;;;;1.13;1.13;;;;;19.50;96343.00;;;;5134851;27;20192;-57
2023/08/23 03:53:15;;;;;;;2.90;1.70;;;;;19.50;96345.00;;;;5134628;27;20197;-57
2023/08/23 03:55:42;;;;;;;1.43;1.33;;;;;19.50;96341.00;;;;5134469;27;20658;-57
2023/08/23 03:58:11;;;;;;;1.00;1.00;;;;;19.60;96342.00;;;;5134074;27;20281;-57
2023/08/23 04:00:38;;;;;;;0.70;0.70;;;;;19.60;96342.00;;;;5134207;27;20205;-58
2023/08/23 04:03:06;;;;;;;1.13;1.13;;;;;19.60;96344.00;;;;5134339;27;20208;-57
2023/08/23 04:05:39;;;;;;;2.17;2.00;;;;;19.40;96352.00;;;;5134108;27;20201;-57
2023/08/23 04:08:07;;;;;;;1.13;0.97;;;;;19.10;96347.00;;;;5134594;27;20196;-57
2023/08/23 04:10:34;;;;;;;1.38;1.02;;;;;19.20;96345.00;;;;5133929;27;20189;-57
2023/08/23 04:13:01;;;;;;;0.60;0.60;;;;;19.20;96345.00;;;;5134468;28;20193;-57
2023/08/23 04:15:30;;;;;;;1.08;1.05;;;;;19.40;96342.00;;;;5134044;28;20682;-57
2023/08/23 04:17:57;;;;;;;0.70;0.70;;;;;19.40;96353.00;;;;5133992;28;20217;-57
2023/08/23 04:20:25;;;;;;;1.27;1.23;;;;;19.50;96347.00;;;;5134344;28;20193;-57
2023/08/23 04:22:52;;;;;;;0.80;0.80;;;;;19.60;96342.00;;;;5134270;28;20192;-57
2023/08/23 04:25:20;;;;;;;1.55;1.48;;;;;19.50;96352.00;;;;5134220;28;20581;-58
2023/08/23 04:27:47;;;;;;;1.03;1.03;;;;;19.50;96352.00;;;;5133839;28;20566;-58
2023/08/23 04:30:14;;;;;;;1.10;1.10;;;;;19.40;96361.00;;;;5133924;28;20193;-57
2023/08/23 04:32:43;;;;;;;1.10;1.10;;;;;19.50;96357.00;;;;5134163;28;20611;-58
2023/08/23 04:35:10;;;;;;;0.90;0.90;;;;;19.50;96358.00;;;;5134401;28;20194;-57
2023/08/23 04:37:38;;;;;;;1.20;1.20;;;;;19.50;96357.00;;;;5132334;28;20213;-58
2023/08/23 04:40:07;;;;;;;1.43;1.33;;;;;19.50;96354.00;;;;5134347;28;20617;-57
2023/08/23 04:42:36;;;;;;;0.90;0.90;;;;;19.60;96346.00;;;;5134390;28;20551;-59
2023/08/23 04:45:04;;;;;;;1.83;1.73;;;;;19.70;96350.00;;;;5133938;28;20197;-58
2023/08/23 04:47:32;;;;;;;1.77;1.67;;;;;19.60;96350.00;;;;5133766;28;20292;-58
2023/08/23 04:50:00;;;;;;;0.83;0.83;;;;;19.70;96348.00;;;;5133968;28;20687;-58
2023/08/23 04:52:30;;;;;;;3.07;1.40;;;;;19.70;96342.00;;;;5133828;28;20189;-58
2023/08/23 04:55:00;;;;;;;1.47;1.37;;;;;19.70;96352.00;;;;5133800;28;20227;-58
2023/08/23 04:57:28;;;;;;;2.10;1.60;;;;;19.40;96354.00;;;;5133450;27;20212;-58
2023/08/23 04:59:55;;;;;;;3.63;2.10;;;;;19.30;96351.00;;;;5133857;28;20213;-58
2023/08/23 05:02:23;;;;;;;2.00;1.47;;;;;19.50;96357.00;;;;5133792;28;20563;-58
2023/08/23 05:04:50;;;;;;;1.17;1.07;;;;;19.60;96363.00;;;;5133539;28;20212;-58
2023/08/23 05:07:19;;;;;;;1.30;1.30;;;;;19.70;96361.00;;;;5132299;28;20692;-58
2023/08/23 05:09:46;;;;;;;1.97;1.07;;;;;19.50;96359.00;;;;5133604;27;20201;-58
2023/08/23 05:12:14;;;;;;;0.80;0.80;;;;;19.60;96362.00;;;;5135145;27;20212;-58
2023/08/23 05:14:41;;;;;;;1.07;1.03;;;;;19.50;96367.00;;;;5137410;27;20196;-58
2023/08/23 05:17:08;;;;;;;14.48;1.45;;;;;19.40;96365.00;;;;5137364;27;20228;-59
2023/08/23 05:19:36;;;;;;;1.10;1.10;;;;;19.60;96363.00;;;;5137050;27;20255;-60
2023/08/23 05:22:03;;;;;;;1.00;1.00;;;;;19.50;96365.00;;;;5137470;27;20576;-59
2023/08/23 05:24:32;;;;;;;1.13;1.03;;;;;19.60;96368.00;;;;5137390;27;20652;-56
2023/08/23 05:26:59;;;;;;;1.57;1.47;;;;;19.80;96363.00;;;;5137399;27;20710;-58
2023/08/23 05:29:26;;;;;;;1.07;1.07;;;;;19.80;96363.00;;;;5136828;27;20189;-59
2023/08/23 05:31:54;;;;;;;0.93;0.93;;;;;19.80;96361.00;;;;5136860;27;20192;-58
2023/08/23 05:34:21;;;;;;;0.80;0.80;;;;;19.90;96364.00;;;;5136941;27;20242;-58
2023/08/23 05:36:49;;;;;;;1.90;1.80;;;;;20.00;96361.00;;;;5136713;27;20205;-58
2023/08/23 05:39:16;;;;;;;1.20;1.20;;;;;20.10;96359.00;;;;5136727;27;20217;-58
2023/08/23 05:41:45;;;;;;;1.07;1.07;;;;;20.10;96355.00;;;;5136745;27;20286;-58
2023/08/23 05:44:12;;;;;;;1.30;1.30;;;;;20.10;96354.00;;;;5136789;27;20189;-58
2023/08/23 05:46:39;;;;;;;3.40;0.95;;;;;20.20;96357.00;;;;5136661;27;20220;-58
2023/08/23 05:49:07;;;;;;;2.35;1.38;;;;;20.10;96359.00;;;;5136778;27;20550;-58
2023/08/23 05:51:34;;;;;;;1.02;1.02;;;;;20.20;96373.00;;;;5136557;27;20189;-58
2023/08/23 05:54:01;;;;;;;0.80;0.80;;;;;20.20;96368.00;;;;5136869;27;20189;-58
2023/08/23 05:56:29;;;;;;;1.58;1.48;;;;;20.30;96372.00;;;;5136401;27;20691;-58
2023/08/23 05:58:58;;;;;;;1.45;1.35;;;;;20.30;96388.00;;;;5136415;27;20213;-57
2023/08/23 06:01:25;;;;;;;1.17;1.17;;;;;20.30;96373.00;;;;5136229;27;20221;-58
2023/08/23 06:03:52;;;;;;;1.63;1.52;;;;;20.40;96374.00;;;;5136452;27;20189;-58
2023/08/23 06:06:20;;;;;;;1.02;1.02;;;;;20.40;96375.00;;;;5136594;27;20213;-58
2023/08/23 06:08:47;;;;;;;1.60;1.50;;;;;20.50;96370.00;;;;5136667;27;20238;-58
2023/08/23 06:11:14;;;;;;;1.98;1.88;;;;;20.50;96382.00;;;;5136968;27;20204;-58
2023/08/23 06:13:42;;;;;;;1.60;1.38;;;;;20.50;96378.00;;;;5136693;27;20189;-58
2023/08/23 06:16:11;;;;;;;1.08;1.05;;;;;20.50;96384.00;;;;5136419;27;20567;-58
2023/08/23 06:18:38;;;;;;;1.17;1.17;;;;;20.70;96377.00;;;;5136898;27;20217;-58
2023/08/23 06:21:06;;;;;;;2.05;1.13;;;;;20.80;96372.00;;;;5136480;27;20541;-58
2023/08/23 06:23:34;;;;;;;1.85;1.75;;;;;20.90;96373.00;;;;5134804;27;20200;-58
2023/08/23 06:26:03;;;;;;;1.15;1.15;;;;;21.00;96375.00;;;;5136222;27;20236;-58
2023/08/23 06:28:31;;;;;;;1.30;1.30;;;;;21.10;96370.00;;;;5135706;27;20197;-58
2023/08/23 06:30:58;;;;;;;2.13;1.88;;;;;21.10;96374.00;;;;5135634;27;20201;-58
2023/08/23 06:33:27;;;;;;;1.63;1.52;;;;;21.20;96370.00;;;;5135632;27;20195;-58
2023/08/23 06:35:54;;;;;;;1.92;1.77;;;;;21.00;96384.00;;;;5135475;27;20197;-58
2023/08/23 06:38:22;;;;;;;1.98;1.88;;;;;21.10;96384.00;;;;5135317;27;20213;-58
2023/08/23 06:40:49;;;;;;;2.28;2.05;;;;;21.10;96390.00;;;;5135288;27;20210;-58
2023/08/23 06:43:19;;;;;;;1.05;1.05;;;;;21.20;96380.00;;;;5135315;27;20623;-58
2023/08/23 06:45:47;;;;;;;0.85;0.85;;;;;21.30;96380.00;;;;5135294;27;20193;-58
2023/08/23 06:48:14;;;;;;;1.50;1.40;;;;;21.40;96379.00;;;;5135143;27;20193;-59
2023/08/23 06:50:43;;;;;;;0.73;0.73;;;;;21.60;96368.00;;;;5135920;27;20281;-58
2023/08/23 06:53:10;;;;;;;0.85;0.85;;;;;21.60;96374.00;;;;5135195;27;20185;-58
2023/08/23 06:55:41;;;;;;;1.63;1.52;;;;;21.80;96372.00;;;;5135072;27;20200;-58
2023/08/23 06:58:08;;;;;;;1.70;1.60;;;;;21.90;96375.00;;;;5135853;27;20571;-58
2023/08/23 07:00:36;;;;;;;1.67;1.27;;;;;21.90;96371.00;;;;5135344;27;20193;-59
2023/08/23 07:03:04;;;;;;;1.38;1.38;;;;;22.00;96376.00;;;;5135346;27;20189;-58
2023/08/23 07:05:34;;;;;;;1.45;1.38;;;;;22.10;96376.00;;;;5134799;27;20193;-59
2023/08/23 07:08:03;;;;;;;0.93;0.93;;;;;22.10;96377.00;;;;5135034;27;20213;-58
2023/08/23 07:10:31;;;;;;;0.98;0.98;;;;;22.10;96376.00;;;;5135314;27;20575;-59
2023/08/23 07:12:58;;;;;;;1.58;1.48;;;;;22.30;96369.00;;;;5135057;27;20201;-58
2023/08/23 07:15:26;;;;;;;1.08;1.08;;;;;22.60;96385.00;;;;5135129;27;20551;-58
2023/08/23 07:17:53;;;;;;;2.38;2.13;;;;;22.50;96384.00;;;;5135150;27;20682;-58
2023/08/23 07:20:21;;;;;;;1.40;1.33;;;;;22.70;96385.00;;;;5134851;27;20209;-59
2023/08/23 07:22:48;;;;;;;0.80;0.80;;;;;22.80;96387.00;;;;5134676;27;20196;-58
2023/08/23 07:25:17;;;;;;;1.42;1.40;;;;;22.90;96382.00;;;;5134626;27;20189;-58
2023/08/23 07:27:45;;;;;;;2.00;1.83;;;;;23.00;96375.00;;;;5134462;27;20212;-58
2023/08/23 07:30:13;;;;;;;3.90;2.72;;;;;23.00;96385.00;;;;5134598;27;20208;-58
2023/08/23 07:32:41;;;;;;;1.70;1.60;;;;;23.30;96381.00;;;;5134826;27;20189;-58
2023/08/23 07:35:09;;;;;;;1.60;1.50;;;;;23.30;96378.00;;;;5133900;27;20200;-58
2023/08/23 07:37:36;;;;;;;2.03;1.48;;;;;23.40;96376.00;;;;5134419;27;20224;-58
2023/08/23 07:40:06;;;;;;;2.05;1.95;;;;;23.30;96380.00;;;;5134527;27;20213;-58
2023/08/23 07:42:35;;;;;;;0.98;0.98;;;;;23.30;96382.00;;;;5134289;27;20196;-58
2023/08/23 07:45:02;;;;;;;1.50;1.40;;;;;23.50;96380.00;;;;5132945;27;20603;-58
2023/08/23 07:47:30;;;;;;;1.55;1.45;;;;;23.70;96375.00;;;;5134448;27;20296;-58
2023/08/23 07:49:57;;;;;;;6.70;2.00;;;;;23.80;96388.00;;;;5134587;27;20189;-58
2023/08/23 07:52:24;;;;;;;1.48;1.38;;;;;23.90;96381.00;;;;5134463;27;20584;-58
2023/08/23 07:54:52;;;;;;;1.08;1.08;;;;;23.90;96386.00;;;;5134189;27;20190;-58
2023/08/23 07:57:19;;;;;;;1.70;1.60;;;;;24.00;96389.00;;;;5134107;27;20605;-58
2023/08/23 07:59:48;;;;;;;2.35;1.90;;;;;24.20;96386.00;;;;5134161;27;20680;-58
2023/08/23 08:02:15;;;;;;;1.75;1.65;;;;;24.10;96389.00;;;;5134639;27;20233;-58
2023/08/23 08:04:45;;;;;;;0.90;0.90;;;;;24.10;96390.00;;;;5133797;27;20257;-58
2023/08/23 08:07:12;;;;;;;2.63;1.23;;;;;24.30;96388.00;;;;5134084;27;20312;-58
2023/08/23 08:09:39;;;;;;;1.70;1.60;;;;;24.10;96365.00;;;;5134076;27;20185;-58
2023/08/23 08:12:07;;;;;;;3.20;2.35;;;;;24.40;96389.00;;;;5134148;27;20200;-57
2023/08/23 08:14:34;;;;;;;1.17;1.17;;;;;24.70;96382.00;;;;5134059;27;20207;-61
2023/08/23 08:17:03;;;;;;;2.03;1.85;;;;;24.50;96390.00;;;;5133902;28;20220;-60
2023/08/23 08:19:31;;;;;;;1.73;1.63;;;;;24.60;96396.00;;;;5133952;28;20274;-60
2023/08/23 08:21:58;;;;;;;1.10;1.10;;;;;24.70;96392.00;;;;5133916;28;20648;-60
2023/08/23 08:24:29;;;;;;;2.65;1.27;;;;;24.60;96393.00;;;;5134047;28;20524;-60
2023/08/23 08:26:56;;;;;;;1.83;1.65;;;;;24.70;96389.00;;;;5132491;28;20266;-60
2023/08/23 08:29:23;;;;;;;2.38;1.73;;;;;24.80;96390.00;;;;5133903;28;20209;-60
2023/08/23 08:31:51;;;;;;;1.77;1.63;;;;;24.90;96385.00;;;;5133846;28;20189;-60
2023/08/23 08:34:20;;;;;;;1.10;1.10;;;;;25.10;96383.00;;;;5133723;28;20192;-60
2023/08/23 08:36:47;;;;;;;0.90;0.90;;;;;24.90;96390.00;;;;5133799;28;20216;-60
2023/08/23 08:39:15;;;;;;;1.25;1.25;;;;;24.80;96391.00;;;;5133958;28;20213;-61
2023/08/23 08:41:44;;;;;;;1.30;1.20;;;;;25.10;96391.00;;;;5134015;28;20263;-60
2023/08/23 08:44:12;;;;;;;2.15;1.65;;;;;25.30;96385.00;;;;5133541;28;20242;-60
2023/08/23 08:46:40;;;;;;;1.55;1.45;;;;;25.30;96389.00;;;;5137332;27;20217;-60
2023/08/23 08:49:08;;;;;;;1.00;1.00;;;;;25.40;96389.00;;;;5137832;27;20189;-60
2023/08/23 08:51:40;;;;;;;1.00;1.00;;;;;25.30;96393.00;;;;5137886;27;20674;-60
2023/08/23 08:54:08;;;;;;;0.90;0.90;;;;;25.60;96397.00;;;;5137588;27;20205;-60
2023/08/23 08:56:36;;;;;;;1.00;1.00;;;;;25.70;96398.00;;;;5136221;27;20216;-60
2023/08/23 08:59:04;;;;;;;4.93;1.55;;;;;25.90;96396.00;;;;5137516;27;20195;-60
2023/08/23 09:01:34;;;;;;;1.48;1.40;;;;;26.10;96394.00;;;;5137724;27;20349;-60
2023/08/23 09:04:02;;;;;;;1.20;1.20;;;;;26.20;96395.00;;;;5137368;27;20198;-60
2023/08/23 09:06:29;;;;;;;0.95;0.95;;;;;26.30;96396.00;;;;5137234;27;20684;-60
2023/08/23 09:08:59;;;;;;;1.95;1.85;;;;;26.50;96405.00;;;;5137392;27;20221;-60
2023/08/23 09:11:26;;;;;;;1.45;1.38;;;;;26.20;96402.00;;;;5137377;27;20197;-64
2023/08/23 09:13:55;;;;;;;6.68;1.98;;;;;26.30;96395.00;;;;5137399;27;20189;-60
2023/08/23 09:16:24;;;;;;;1.45;1.35;;;;;26.30;96407.00;;;;5137057;27;20213;-60
2023/08/23 09:18:52;;;;;;;1.73;1.15;;;;;26.30;96402.00;;;;5137018;27;20683;-60
2023/08/23 09:21:24;;;;;;;0.88;0.88;;;;;26.40;96400.00;;;;5137097;27;20216;-61
2023/08/23 09:23:51;;;;;;;1.48;1.35;;;;;26.50;96397.00;;;;5137088;27;20174;-60
2023/08/23 09:26:20;;;;;;;1.40;1.30;;;;;26.70;96395.00;;;;5137396;27;20215;-60
2023/08/23 09:28:48;;;;;;;0.93;0.93;;;;;26.80;96394.00;;;;5137184;27;20197;-60
2023/08/23 09:31:17;;;;;;;1.23;1.15;;;;;27.10;96396.00;;;;5137208;27;20190;-60
2023/08/23 09:33:45;;;;;;;1.00;1.00;;;;;26.90;96392.00;;;;5136936;27;20551;-60
2023/08/23 09:36:23;;;;;;;0.80;0.80;;;;;26.90;96389.00;;;;5136779;27;20229;-60
2023/08/23 09:38:50;;;;;;;0.80;0.80;;;;;26.90;96373.00;;;;5137455;27;20181;-61
2023/08/23 09:41:18;;;;;;;4.22;1.70;;;;;26.90;96370.00;;;;5136781;27;20209;-61
2023/08/23 09:43:49;;;;;;;1.83;1.52;;;;;27.10;96382.00;;;;5136801;27;20185;-60
2023/08/23 09:46:18;;;;;;;1.80;1.67;;;;;27.10;96380.00;;;;5136962;27;20205;-60
2023/08/23 09:48:48;;;;;;;1.40;1.40;;;;;27.10;96378.00;;;;5136682;27;20189;-60
2023/08/23 09:51:15;;;;;;;1.77;1.67;;;;;27.20;96391.00;;;;5136492;27;20186;-60
2023/08/23 09:53:46;;;;;;;1.48;1.40;;;;;27.40;96392.00;;;;5137420;27;20189;-60
2023/08/23 09:56:15;;;;;;;12.27;2.05;;;;;27.50;96390.00;;;;5136106;27;20209;-60
2023/08/23 09:58:43;;;;;;;1.10;1.10;;;;;27.70;96380.00;;;;5136219;27;20186;-60
2023/08/23 10:01:12;;;;;;;1.15;1.15;;;;;27.80;96381.00;;;;5135890;27;20231;-60
2023/08/23 10:03:40;;;;;;;1.55;1.42;;;;;28.10;96376.00;;;;5136339;27;20549;-60
2023/08/23 10:06:08;;;;;;;2.58;2.05;;;;;28.30;96375.00;;;;5136442;27;20217;-60
2023/08/23 10:08:37;;;;;;;1.70;1.60;;;;;28.30;96368.00;;;;5134711;27;20194;-60
2023/08/23 10:11:04;;;;;;;2.28;2.15;;;;;28.30;96374.00;;;;5136605;27;20276;-60
2023/08/23 10:13:34;;;;;;;1.25;1.17;;;;;28.50;96375.00;;;;5136372;27;20193;-60
2023/08/23 10:16:03;;;;;;;1.65;1.55;;;;;28.50;96364.00;;;;5135935;27;20679;-60
2023/08/23 10:18:33;;;;;;;2.17;1.60;;;;;28.60;96368.00;;;;5135867;27;20679;-60
2023/08/23 10:21:02;;;;;;;2.63;1.20;;;;;28.70;96381.00;;;;5136332;27;20532;-60
2023/08/23 10:23:33;;;;;;;5.22;1.67;;;;;28.90;96377.00;;;;5136008;27;20656;-61
2023/08/23 10:26:02;;;;;;;0.90;0.90;;;;;28.80;96379.00;;;;5136022;27;20209;-61
2023/08/23 10:28:29;;;;;;;1.77;1.67;;;;;29.10;96377.00;;;;5136255;27;20212;-61
2023/08/23 10:31:01;;;;;;;1.38;1.13;;;;;29.20;96373.00;;;;5136151;27;20195;-61
2023/08/23 10:33:28;;;;;;;1.10;1.10;;;;;29.40;96373.00;;;;5136045;27;20185;-61
2023/08/23 10:35:57;;;;;;;3.45;2.00;;;;;29.50;96376.00;;;;5135734;27;20193;-61
2023/08/23 10:38:24;;;;;;;1.88;1.67;;;;;29.40;96372.00;;;;5135444;27;20189;-61
2023/08/23 10:40:51;;;;;;;1.67;1.17;;;;;29.50;96375.00;;;;5135855;27;20222;-60
2023/08/23 10:43:20;;;;;;;3.28;1.20;;;;;29.70;96375.00;;;;5135639;27;20196;-61
2023/08/23 10:45:50;;;;;;;1.00;1.00;;;;;29.70;96379.00;;;;5135820;27;20241;-61
2023/08/23 10:48:19;;;;;;;2.35;1.27;;;;;29.50;96375.00;;;;5135257;27;20215;-61
2023/08/23 10:50:48;;;;;;;2.80;2.15;;;;;29.70;96388.00;;;;5135409;27;20198;-61
2023/08/23 10:53:18;;;;;;;1.10;1.10;;;;;29.80;96384.00;;;;5135405;27;20189;-61
2023/08/23 10:55:45;;;;;;;1.35;1.33;;;;;29.70;96366.00;;;;5135162;27;20190;-60
2023/08/23 10:58:14;;;;;;;4.50;1.95;;;;;30.10;96369.00;;;;5135615;27;20185;-61
2023/08/23 11:00:42;;;;;;;1.55;1.45;;;;;30.30;96361.00;;;;5135295;27;20213;-61
2023/08/23 11:03:11;;;;;;;1.65;1.50;;;;;30.50;96359.00;;;;5135369;27;20200;-61
2023/08/23 11:05:39;;;;;;;1.40;1.30;;;;;30.70;96366.00;;;;5135154;27;20679;-61
2023/08/23 11:08:08;;;;;;;2.17;1.92;;;;;30.80;96361.00;;;;5134736;27;20186;-61
2023/08/23 11:10:38;;;;;;;0.98;0.98;;;;;30.60;96365.00;;;;5134887;27;20177;-61
2023/08/23 11:13:06;;;;;;;1.25;1.10;;;;;31.00;96359.00;;;;5135230;27;20660;-60
2023/08/23 11:15:33;;;;;;;1.77;1.67;;;;;31.20;96366.00;;;;5135080;27;20656;-61
2023/08/23 11:18:02;;;;;;;1.90;1.73;;;;;31.30;96364.00;;;;5135066;27;20304;-61
2023/08/23 11:20:30;;;;;;;1.17;1.17;;;;;31.40;96361.00;;;;5134762;27;20311;-61
2023/08/23 11:22:57;;;;;;;3.38;1.30;;;;;31.70;96366.00;;;;5135156;27;20192;-61
2023/08/23 11:25:24;;;;;;;1.33;1.33;;;;;31.80;96361.00;;;;5134790;27;20216;-61
2023/08/23 11:27:53;;;;;;;3.42;1.73;;;;;31.70;96361.00;;;;5134791;27;20209;-61
2023/08/23 11:30:21;;;;;;;1.80;1.70;;;;;31.90;96357.00;;;;5133574;27;20204;-61
2023/08/23 11:32:48;;;;;;;3.05;1.35;;;;;32.10;96361.00;;;;5135036;27;20237;-60
2023/08/23 11:35:18;;;;;;;3.28;1.95;;;;;32.10;96365.00;;;;5134916;27;20197;-61
2023/08/23 11:37:49;;;;;;;1.10;1.10;;;;;32.10;96370.00;;;;5135032;27;20216;-61
2023/08/23 11:40:17;;;;;;;1.98;1.13;;;;;31.70;96364.00;;;;5134990;27;20197;-61
2023/08/23 11:42:45;;;;;;;1.52;1.45;;;;;31.70;96372.00;;;;5134674;27;20189;-61
2023/08/23 11:45:14;;;;;;;1.05;1.05;;;;;32.10;96374.00;;;;5134590;27;20586;-61
2023/08/23 11:47:41;;;;;;;1.67;1.58;;;;;31.90;96371.00;;;;5134756;27;20216;-61
2023/08/23 11:50:10;;;;;;;1.40;1.30;;;;;31.90;96370.00;;;;5134617;27;20185;-60
2023/08/23 11:52:37;;;;;;;1.08;1.08;;;;;32.20;96364.00;;;;5133092;27;20656;-61
2023/08/23 11:55:05;;;;;;;1.15;1.10;;;;;32.30;96365.00;;;;5134406;27;20611;-61
2023/08/23 11:57:34;;;;;;;1.55;1.45;;;;;32.50;96363.00;;;;5134390;27;20209;-61
2023/08/23 12:00:01;;;;;;;1.15;1.15;;;;;32.60;96363.00;;;;5134290;27;20213;-61
2023/08/23 12:02:30;;;;;;;2.60;2.40;;;;;32.70;96365.00;;;;5134354;27;20668;-61
2023/08/23 12:04:58;;;;;;;1.65;1.55;;;;;32.80;96363.00;;;;5134193;27;20276;-61
2023/08/23 12:07:25;;;;;;;2.03;1.90;;;;;32.90;96356.00;;;;5134225;27;20219;-61
2023/08/23 12:09:53;;;;;;;1.10;1.10;;;;;32.70;96361.00;;;;5134272;27;20194;-61
2023/08/23 12:12:22;;;;;;;1.83;1.70;;;;;32.70;96366.00;;;;5134099;27;20190;-61
2023/08/23 12:14:49;;;;;;;1.77;1.67;;;;;32.60;96358.00;;;;5134211;27;20242;-61
2023/08/23 12:17:17;;;;;;;1.10;1.10;;;;;32.60;96352.00;;;;5134222;28;20283;-61
2023/08/23 12:19:45;;;;;;;1.00;1.00;;;;;32.40;96354.00;;;;5135508;27;20196;-61
2023/08/23 12:22:13;;;;;;;0.90;0.88;;;;;32.70;96358.00;;;;5141070;27;20266;-61